createdAt,value
2023-05-08T00:01:42.799Z,101943.13
2023-05-08T00:06:44.412Z,101942.94
2023-05-08T00:11:46.076Z,101950.22
2023-05-08T00:16:47.767Z,101936.94
2023-05-08T00:21:49.436Z,101945.25
2023-05-08T00:26:51.155Z,101948.34
2023-05-08T00:31:53.033Z,101953.38
2023-05-08T00:36:59.629Z,101958.06
2023-05-08T00:42:01.231Z,101964.47
2023-05-08T00:47:02.969Z,101962.38
2023-05-08T00:52:08.768Z,101966.38
2023-05-08T00:57:10.692Z,101952.91
2023-05-08T01:02:12.618Z,101946.00
2023-05-08T01:07:14.333Z,101957.56
2023-05-08T01:12:47.674Z,101956.00
2023-05-08T01:18:01.236Z,101960.34
2023-05-08T01:23:40.552Z,101947.72
2023-05-08T01:29:12.852Z,101946.69
2023-05-08T01:34:25.295Z,101949.25
2023-05-08T01:39:32.977Z,101951.34
2023-05-08T01:44:43.729Z,101955.16
2023-05-08T01:49:49.345Z,101954.78
2023-05-08T01:54:59.629Z,101954.28
2023-05-08T02:00:03.839Z,101951.84
2023-05-08T02:05:12.864Z,101958.94
2023-05-08T02:10:16.485Z,101962.38
2023-05-08T02:15:20.135Z,101967.91
2023-05-08T02:20:23.247Z,101973.97
2023-05-08T02:25:25.783Z,101975.72
2023-05-08T02:30:28.681Z,101968.44
2023-05-08T02:35:31.540Z,101963.28
2023-05-08T02:40:34.144Z,101958.44
2023-05-08T02:45:45.814Z,101962.03
2023-05-08T02:51:06.731Z,101960.16
2023-05-08T02:56:12.201Z,101954.78
2023-05-08T03:02:01.388Z,101947.38
2023-05-08T03:07:04.711Z,101944.59
2023-05-08T03:12:11.200Z,101940.25
2023-05-08T03:17:19.551Z,101935.94
2023-05-08T03:22:22.727Z,101938.88
2023-05-08T03:27:26.340Z,101939.06
2023-05-08T03:32:30.122Z,101940.09
2023-05-08T03:37:32.076Z,101942.16
2023-05-08T03:42:35.869Z,101948.03
2023-05-08T03:47:38.698Z,101945.97
2023-05-08T03:52:40.930Z,101937.31
2023-05-08T03:58:15.157Z,101941.44
2023-05-08T04:08:44.851Z,101928.13
2023-05-08T04:13:53.090Z,101940.44
2023-05-08T04:19:01.225Z,101942.50
2023-05-08T04:24:07.401Z,101948.22
2023-05-08T04:29:09.694Z,101950.28
2023-05-08T04:34:12.680Z,101953.91
2023-05-08T04:39:14.819Z,101956.31
2023-05-08T04:44:17.645Z,101962.38
2023-05-08T04:49:19.826Z,101962.22
2023-05-08T04:54:24.817Z,101960.81
2023-05-08T04:59:26.798Z,101966.34
2023-05-08T05:04:29.103Z,101973.97
2023-05-08T05:09:34.940Z,101971.88
2023-05-08T05:14:36.711Z,101965.50
2023-05-08T05:19:38.947Z,101974.16
2023-05-08T05:24:41.585Z,101978.47
2023-05-08T05:29:43.446Z,101976.53
2023-05-08T05:34:45.396Z,101986.22
2023-05-08T05:39:47.103Z,101991.22
2023-05-08T05:44:49.043Z,102001.63
2023-05-08T05:49:53.586Z,102006.09
2023-05-08T05:54:58.056Z,102008.03
2023-05-08T06:00:00.149Z,102016.81
2023-05-08T06:05:02.486Z,102021.69
2023-05-08T06:10:05.023Z,102024.13
2023-05-08T06:15:08.001Z,102022.91
2023-05-08T06:20:10.234Z,102021.38
2023-05-08T06:25:12.128Z,102020.69
2023-05-08T06:30:14.101Z,102028.28
2023-05-08T06:35:19.635Z,102016.69
2023-05-08T06:40:22.214Z,102015.16
2023-05-08T06:45:25.987Z,102015.84
2023-05-08T06:50:27.784Z,102012.56
2023-05-08T06:55:29.445Z,102011.34
2023-05-08T07:00:31.234Z,102014.78
2023-05-08T07:05:32.975Z,102011.69
2023-05-08T07:10:34.792Z,102014.28
2023-05-08T07:15:36.405Z,102016.50
2023-05-08T07:20:38.216Z,102003.19
2023-05-08T07:25:39.935Z,102015.81
2023-05-08T07:30:41.643Z,102000.75
2023-05-08T07:35:43.501Z,101995.94
2023-05-08T07:40:45.957Z,102000.75
2023-05-08T07:45:47.747Z,101998.69
2023-05-08T07:50:51.464Z,102009.06
2023-05-08T07:55:53.628Z,102012.28
2023-05-08T08:00:55.813Z,102012.47
2023-05-08T08:05:57.652Z,102021.84
2023-05-08T08:11:00.464Z,102019.91
2023-05-08T08:16:04.296Z,102024.22
2023-05-08T08:21:07.532Z,102026.53
2023-05-08T08:26:09.313Z,102025.13
2023-05-08T08:31:11.110Z,102012.69
2023-05-08T08:36:13.863Z,102012.66
2023-05-08T08:41:15.633Z,102010.69
2023-05-08T08:46:23.909Z,102010.44
2023-05-08T08:51:32.819Z,102019.47
2023-05-08T08:56:36.527Z,102012.03
2023-05-08T09:01:40.838Z,102009.59
2023-05-08T09:06:42.530Z,102008.25
2023-05-08T09:11:46.583Z,102016.31
2023-05-08T09:16:48.356Z,102013.66
2023-05-08T09:21:53.639Z,102020.91
2023-05-08T09:26:55.966Z,102006.53
2023-05-08T09:31:57.560Z,102006.72
2023-05-08T09:37:05.318Z,102020.53
2023-05-08T09:42:08.400Z,102015.88
2023-05-08T09:47:12.309Z,102021.25
2023-05-08T09:52:16.135Z,102030.19
2023-05-08T09:57:17.905Z,102030.03
2023-05-08T10:02:21.315Z,102028.06
2023-05-08T10:07:34.810Z,102023.00
2023-05-08T10:12:38.002Z,102026.34
2023-05-08T10:17:54.753Z,102028.44
2023-05-08T10:22:58.022Z,102025.38
2023-05-08T10:28:11.474Z,102039.78
2023-05-08T10:33:16.183Z,102034.97
2023-05-08T10:38:19.241Z,102040.84
2023-05-08T10:43:21.404Z,102032.94
2023-05-08T10:48:44.980Z,102035.56
2023-05-08T10:53:53.917Z,102031.91
2023-05-08T10:58:57.643Z,102025.53
2023-05-08T11:03:59.614Z,102033.16
2023-05-08T11:09:01.550Z,102030.66
2023-05-08T11:14:12.494Z,102019.88
2023-05-08T11:19:23.169Z,102029.63
2023-05-08T11:24:35.804Z,102021.63
2023-05-08T11:29:38.567Z,102004.78
2023-05-08T11:34:43.481Z,102001.69
2023-05-08T11:39:45.734Z,102006.16
2023-05-08T11:44:50.499Z,102004.72
2023-05-08T11:49:55.446Z,101987.25
2023-05-08T11:54:57.220Z,102007.59
2023-05-08T12:00:09.880Z,101999.00
2023-05-08T12:05:12.303Z,101989.59
2023-05-08T12:10:16.114Z,101998.44
2023-05-08T12:15:20.884Z,101996.59
2023-05-08T12:20:22.760Z,101988.50
2023-05-08T12:25:25.807Z,101999.25
2023-05-08T12:30:27.996Z,101990.00
2023-05-08T12:35:30.613Z,101969.41
2023-05-08T12:40:42.783Z,101978.94
2023-05-08T12:45:44.702Z,101968.63
2023-05-08T12:50:46.777Z,101980.44
2023-05-08T12:55:57.098Z,101980.66
2023-05-08T13:01:13.212Z,101967.75
2023-05-08T13:06:22.605Z,101964.28
2023-05-08T13:11:35.325Z,101957.28
2023-05-08T13:16:47.793Z,101953.63
2023-05-08T13:21:49.861Z,101953.72
2023-05-08T13:26:52.924Z,101962.97
2023-05-08T13:31:55.645Z,101964.06
2023-05-08T13:36:57.746Z,101969.19
2023-05-08T13:41:59.385Z,101966.16
2023-05-08T13:47:01.178Z,101969.38
2023-05-08T13:52:02.904Z,101964.78
2023-05-08T13:57:04.644Z,101971.84
2023-05-08T14:02:06.831Z,101978.59
2023-05-08T14:07:08.591Z,101971.94
2023-05-08T14:12:10.410Z,101961.78
2023-05-08T14:17:12.299Z,101961.31
2023-05-08T14:22:14.331Z,101959.56
2023-05-08T14:27:17.442Z,101948.53
2023-05-08T14:32:19.108Z,101959.50
2023-05-08T14:37:23.044Z,101954.38
2023-05-08T14:42:24.924Z,101954.00
2023-05-08T14:47:27.110Z,101944.53
2023-05-08T14:52:28.924Z,101944.78
2023-05-08T14:57:30.582Z,101941.59
2023-05-08T15:02:32.662Z,101937.38
2023-05-08T15:07:34.652Z,101928.56
2023-05-08T15:12:37.193Z,101929.34
2023-05-08T15:17:41.553Z,101933.09
2023-05-08T15:22:43.557Z,101925.91
2023-05-08T15:27:54.897Z,101929.09
2023-05-08T15:32:56.547Z,101930.22
2023-05-08T15:37:59.496Z,101944.06
2023-05-08T15:43:01.307Z,101935.59
2023-05-08T15:48:03.029Z,101935.34
2023-05-08T15:53:05.786Z,101935.72
2023-05-08T15:58:07.449Z,101932.81
2023-05-08T16:03:09.322Z,101944.84
2023-05-08T16:08:12.774Z,101940.72
2023-05-08T16:13:15.180Z,101927.19
2023-05-08T16:18:16.913Z,101917.78
2023-05-08T16:23:18.691Z,101900.66
2023-05-08T16:28:23.158Z,101905.44
2023-05-08T16:33:24.924Z,101899.81
2023-05-08T16:38:26.784Z,101894.72
2023-05-08T16:43:31.764Z,101900.00
2023-05-08T16:48:34.021Z,101900.78
2023-05-08T16:53:35.697Z,101890.50
2023-05-08T16:58:37.475Z,101873.28
2023-05-08T17:03:39.220Z,101885.06
2023-05-08T17:08:41.076Z,101891.47
2023-05-08T17:13:43.280Z,101881.81
2023-05-08T17:18:45.069Z,101865.81
2023-05-08T17:23:46.737Z,101868.09
2023-05-08T17:28:49.568Z,101867.75
2023-05-08T17:33:51.230Z,101873.06
2023-05-08T17:38:52.884Z,101863.81
2023-05-08T17:43:55.084Z,101871.97
2023-05-08T17:48:56.792Z,101863.53
2023-05-08T17:53:58.462Z,101867.94
2023-05-08T17:59:00.262Z,101868.22
2023-05-08T18:04:02.160Z,101847.75
2023-05-08T18:09:04.096Z,101824.59
2023-05-08T18:14:05.918Z,101833.41
2023-05-08T18:19:07.687Z,101845.06
2023-05-08T18:24:09.338Z,101852.03
2023-05-08T18:29:14.095Z,101846.09
2023-05-08T18:34:15.802Z,101851.81
2023-05-08T18:39:17.570Z,101852.59
2023-05-08T18:44:19.265Z,101859.19
2023-05-08T18:49:22.444Z,101866.31
2023-05-08T18:54:26.918Z,101857.63
2023-05-08T18:59:29.068Z,101867.22
2023-05-08T19:04:30.843Z,101868.78
2023-05-08T19:09:34.011Z,101865.09
2023-05-08T19:14:36.449Z,101869.31
2023-05-08T19:19:38.229Z,101864.28
2023-05-08T19:24:40.382Z,101868.53
2023-05-08T19:29:42.476Z,101872.47
2023-05-08T19:34:44.237Z,101884.53
2023-05-08T19:39:46.120Z,101891.03
2023-05-08T19:44:48.519Z,101894.59
2023-05-08T19:49:51.250Z,101889.97
2023-05-08T19:54:52.911Z,101885.44
2023-05-08T19:59:54.538Z,101889.59
2023-05-08T20:10:01.419Z,101891.47
2023-05-08T20:15:03.453Z,101880.69
2023-05-08T20:20:05.908Z,101868.16
2023-05-08T20:25:08.253Z,101873.34
2023-05-08T20:30:10.621Z,101872.44
2023-05-08T20:35:14.032Z,101872.28
2023-05-08T20:40:16.068Z,101875.47
2023-05-08T20:45:18.203Z,101863.84
2023-05-08T20:50:22.755Z,101853.31
2023-05-08T20:55:24.704Z,101850.03
2023-05-08T21:00:26.489Z,101844.84
2023-05-08T21:05:28.437Z,101833.59
2023-05-08T21:10:31.790Z,101832.78
2023-05-08T21:15:37.289Z,101825.16
2023-05-08T21:20:39.138Z,101817.03
2023-05-08T21:25:40.762Z,101811.88
2023-05-08T21:30:45.970Z,101805.28
2023-05-08T21:35:48.454Z,101790.44
2023-05-08T21:40:50.412Z,101775.03
2023-05-08T21:45:52.911Z,101771.59
2023-05-08T21:50:54.779Z,101752.03
2023-05-08T21:55:56.571Z,101754.31
2023-05-08T22:00:58.807Z,101754.75
2023-05-08T22:06:00.862Z,101746.63
2023-05-08T22:11:02.570Z,101739.38
2023-05-08T22:16:04.706Z,101733.25
2023-05-08T22:21:06.503Z,101732.28
2023-05-08T22:26:08.137Z,101724.09
2023-05-08T22:31:09.826Z,101722.84
2023-05-08T22:36:11.609Z,101700.59
2023-05-08T22:41:13.365Z,101695.91
2023-05-08T22:46:15.270Z,101689.50
2023-05-08T22:51:17.283Z,101670.56
2023-05-08T22:56:24.624Z,101666.63
2023-05-08T23:01:26.460Z,101668.72
2023-05-08T23:06:28.194Z,101659.88
2023-05-08T23:11:29.945Z,101654.34
2023-05-08T23:16:32.064Z,101649.16
2023-05-08T23:21:35.461Z,101650.69
2023-05-08T23:26:37.027Z,101652.69
2023-05-08T23:31:38.815Z,101648.41
2023-05-08T23:36:40.515Z,101639.75
2023-05-08T23:41:42.343Z,101642.00
2023-05-08T23:46:43.970Z,101632.41
2023-05-08T23:51:45.711Z,101619.97
2023-05-08T23:56:47.719Z,101614.81
